Time;durP1;ratioP1;P1;durP2;ratioP2;P2;SDS_P1;SDS_P2;PMS_P1;PMS_P2;Temp;Humidity;BMP_temperature;BMP_pressure;BME280_temperature;BME280_humidity;BME280_pressure;Samples;Min_cycle;Max_cycle;Signal;HPM_P1;HPM_P2
2022/11/04 00:01:31;;;;;;;11.60;6.43;;;12.40;99.90;;;;;;6247839;22;20035;-85
2022/11/04 00:03:56;;;;;;;8.32;6.05;;;12.40;99.90;;;;;;6275928;22;20008;-86
2022/11/04 00:06:23;;;;;;;9.77;6.80;;;12.40;99.90;;;;;;6248476;22;20314;-85
2022/11/04 00:08:50;;;;;;;9.60;6.75;;;12.40;99.90;;;;;;6249273;22;20031;-85
2022/11/04 00:14:00;;;;;;;9.77;6.70;;;12.40;99.90;;;;;;6277175;22;20020;-85
2022/11/04 00:19:10;;;;;;;7.80;6.20;;;12.40;99.90;;;;;;6250904;22;20091;-86
2022/11/04 00:29:48;;;;;;;4.03;2.35;;;12.30;99.90;;;;;;6249591;22;20019;-86
2022/11/04 00:34:58;;;;;;;4.47;1.95;;;12.20;99.90;;;;;;6249750;22;20023;-85
2022/11/04 00:37:25;;;;;;;5.75;3.17;;;12.10;99.90;;;;;;6250381;22;20020;-85
2022/11/04 00:39:50;;;;;;;4.28;2.35;;;12.10;99.90;;;;;;6277619;22;20062;-85
2022/11/04 00:42:16;;;;;;;5.00;2.60;;;12.10;99.90;;;;;;6250015;22;20513;-85
2022/11/04 00:44:42;;;;;;;3.10;1.75;;;12.00;99.90;;;;;;6250171;22;20107;-84
2022/11/04 00:47:07;;;;;;;3.25;1.73;;;12.00;99.90;;;;;;6250725;22;20016;-85
2022/11/04 00:49:33;;;;;;;5.75;2.05;;;12.00;99.90;;;;;;6276485;22;20019;-84
2022/11/04 00:51:58;;;;;;;5.68;2.70;;;12.00;99.90;;;;;;6249765;22;20106;-85
2022/11/04 00:54:24;;;;;;;4.78;1.70;;;12.00;99.90;;;;;;6249468;22;20498;-86
2022/11/04 00:56:49;;;;;;;3.83;1.60;;;12.00;99.90;;;;;;6248919;22;20015;-85
2022/11/04 00:59:15;;;;;;;4.13;1.50;;;11.90;99.90;;;;;;6250226;22;20018;-85
2022/11/04 01:01:41;;;;;;;4.47;2.15;;;11.90;99.90;;;;;;6277424;22;20387;-84
2022/11/04 01:04:08;;;;;;;3.70;0.93;;;11.90;99.90;;;;;;6249657;22;20306;-84
2022/11/04 01:06:33;;;;;;;3.92;1.27;;;11.90;99.90;;;;;;6250308;22;20020;-84
2022/11/04 01:09:03;;;;;;;3.83;1.70;;;11.90;99.90;;;;;;6250128;22;20055;-84
2022/11/04 01:11:30;;;;;;;3.65;1.45;;;11.90;99.90;;;;;;6249519;22;20361;-84
2022/11/04 01:13:56;;;;;;;3.55;1.33;;;11.80;99.90;;;;;;6276932;22;20037;-85
2022/11/04 01:16:23;;;;;;;2.60;0.85;;;11.80;99.90;;;;;;6249784;22;20016;-85
2022/11/04 01:18:49;;;;;;;2.65;1.35;;;11.80;99.90;;;;;;6276502;22;20074;-85
2022/11/04 01:21:16;;;;;;;3.22;1.20;;;11.80;99.90;;;;;;6249826;22;20051;-85
2022/11/04 01:23:43;;;;;;;4.70;1.13;;;11.80;99.90;;;;;;6277037;22;20377;-85
2022/11/04 01:26:17;;;;;;;4.30;1.58;;;11.80;99.90;;;;;;6250237;22;20034;-85
2022/11/04 01:28:44;;;;;;;2.63;0.70;;;11.80;99.90;;;;;;6250284;22;20020;-85
2022/11/04 01:31:12;;;;;;;3.78;0.70;;;11.80;99.90;;;;;;6249489;22;20023;-85
2022/11/04 01:33:38;;;;;;;4.05;1.00;;;11.80;99.90;;;;;;6249524;22;20008;-85
2022/11/04 01:36:05;;;;;;;3.03;1.00;;;11.80;99.90;;;;;;6276503;22;20020;-85
2022/11/04 01:38:30;;;;;;;2.05;0.60;;;11.70;99.90;;;;;;6249615;22;20534;-85
2022/11/04 01:40:57;;;;;;;4.63;1.00;;;11.80;99.90;;;;;;6276854;22;20051;-85
2022/11/04 01:43:43;;;;;;;1.55;0.70;;;11.70;99.90;;;;;;6249954;22;20022;-85
2022/11/04 01:46:31;;;;;;;2.97;0.57;;;11.70;99.90;;;;;;6249105;22;20026;-84
2022/11/04 01:49:29;;;;;;;5.35;0.70;;;11.70;99.90;;;;;;6249348;22;20047;-84
2022/11/04 01:52:09;;;;;;;1.40;0.40;;;11.70;99.90;;;;;;6240467;22;20023;-85
2022/11/04 01:54:37;;;;;;;3.50;0.70;;;11.70;99.90;;;;;;6276653;22;20531;-84
2022/11/04 01:57:06;;;;;;;2.35;0.60;;;11.70;99.90;;;;;;6249084;22;20016;-84
2022/11/04 01:59:38;;;;;;;3.35;0.65;;;11.60;99.90;;;;;;6249134;22;20020;-85
2022/11/04 02:02:04;;;;;;;4.33;0.77;;;11.60;99.90;;;;;;6275708;22;20586;-85
2022/11/04 02:04:30;;;;;;;2.45;0.60;;;11.60;99.90;;;;;;6276641;22;20325;-85
2022/11/04 02:06:59;;;;;;;4.47;0.65;;;11.60;99.90;;;;;;6275189;22;20051;-85
2022/11/04 02:09:28;;;;;;;3.08;0.60;;;11.60;99.90;;;;;;6277079;22;20015;-84
2022/11/04 02:14:39;;;;;;;2.72;0.70;;;11.60;99.90;;;;;;6248840;22;20059;-84
2022/11/04 02:17:18;;;;;;;2.05;0.50;;;11.60;99.90;;;;;;6248891;22;20043;-84
2022/11/04 02:20:15;;;;;;;2.75;0.50;;;11.60;99.90;;;;;;6276365;22;20523;-85
2022/11/04 02:22:46;;;;;;;2.10;0.65;;;11.60;99.90;;;;;;6276273;22;20317;-85
2022/11/04 02:25:56;;;;;;;3.45;0.63;;;11.60;99.90;;;;;;6249674;22;20031;-85
2022/11/04 02:28:59;;;;;;;3.97;0.70;;;11.60;99.90;;;;;;6276140;22;20023;-85
2022/11/04 02:31:33;;;;;;;2.15;0.43;;;11.60;99.90;;;;;;6277310;22;20038;-85
2022/11/04 02:34:41;;;;;;;2.22;0.60;;;11.50;99.90;;;;;;6247763;22;20466;-85
2022/11/04 02:37:25;;;;;;;2.72;0.60;;;11.50;99.90;;;;;;6258941;22;20047;-85
2022/11/04 02:40:01;;;;;;;2.50;0.40;;;11.50;99.90;;;;;;6248872;22;20034;-84
2022/11/04 02:42:42;;;;;;;2.25;0.57;;;11.50;99.90;;;;;;6276051;22;20377;-85
2022/11/04 02:45:21;;;;;;;1.75;0.52;;;11.50;99.90;;;;;;6275838;22;20039;-85
2022/11/04 02:47:54;;;;;;;1.55;0.30;;;11.50;99.90;;;;;;6248987;22;20090;-85
2022/11/04 02:50:30;;;;;;;2.35;0.50;;;11.50;99.90;;;;;;6248248;22;20018;-85
2022/11/04 02:53:11;;;;;;;1.92;0.45;;;11.60;99.90;;;;;;6276271;22;20012;-85
2022/11/04 02:55:41;;;;;;;2.33;0.45;;;11.50;99.90;;;;;;6275817;22;20016;-85
2022/11/04 02:58:17;;;;;;;1.95;0.40;;;11.50;99.90;;;;;;6248659;22;20043;-85
2022/11/04 03:00:45;;;;;;;1.75;0.30;;;11.50;99.90;;;;;;6276121;22;20314;-85
2022/11/04 03:03:16;;;;;;;1.80;0.40;;;11.50;99.90;;;;;;6248641;22;20073;-85
2022/11/04 03:05:45;;;;;;;1.90;0.40;;;11.50;99.90;;;;;;6249078;22;20012;-85
2022/11/04 03:08:40;;;;;;;3.53;0.60;;;11.50;99.90;;;;;;6249227;22;20016;-85
2022/11/04 03:11:23;;;;;;;2.20;0.60;;;11.50;99.90;;;;;;6270723;22;20385;-86
2022/11/04 03:13:48;;;;;;;3.47;0.80;;;11.50;99.90;;;;;;6249129;22;20110;-87
2022/11/04 03:16:22;;;;;;;2.35;0.40;;;11.50;99.90;;;;;;6248551;22;20463;-87
2022/11/04 03:18:56;;;;;;;3.60;0.60;;;11.50;99.90;;;;;;6275907;22;20023;-88
2022/11/04 03:21:23;;;;;;;2.08;0.47;;;11.50;99.90;;;;;;6249148;22;20015;-86
2022/11/04 03:23:49;;;;;;;2.70;0.52;;;11.50;99.90;;;;;;6275371;22;20015;-85
2022/11/04 03:26:32;;;;;;;2.78;0.57;;;11.50;99.90;;;;;;6248827;22;20336;-86
2022/11/04 03:29:25;;;;;;;1.00;0.40;;;11.50;99.90;;;;;;6247938;22;20016;-85
2022/11/04 03:31:50;;;;;;;2.88;0.40;;;11.50;99.90;;;;;;6248187;22;20068;-86
2022/11/04 03:34:18;;;;;;;2.90;0.40;;;11.50;99.90;;;;;;6276332;22;20072;-85
2022/11/04 03:36:44;;;;;;;2.42;0.50;;;11.50;99.90;;;;;;6275765;22;20030;-85
2022/11/04 03:39:11;;;;;;;1.80;0.50;;;11.50;99.90;;;;;;6275527;22;20048;-86
2022/11/04 03:41:51;;;;;;;3.95;0.60;;;11.50;99.90;;;;;;6249280;22;20043;-85
2022/11/04 03:44:17;;;;;;;0.65;0.35;;;11.50;99.90;;;;;;6278010;22;20046;-85
2022/11/04 03:46:43;;;;;;;2.08;0.40;;;11.50;99.90;;;;;;6278583;22;20012;-85
2022/11/04 03:49:09;;;;;;;2.03;0.40;;;11.50;99.90;;;;;;6279641;22;20098;-84
2022/11/04 03:51:35;;;;;;;2.78;0.30;;;11.50;99.90;;;;;;6251357;22;20432;-85
2022/11/04 03:54:00;;;;;;;1.55;0.40;;;11.50;99.90;;;;;;6279083;22;20022;-84
2022/11/04 03:56:52;;;;;;;2.83;0.40;;;11.50;99.90;;;;;;6252041;22;20015;-85
2022/11/04 03:59:45;;;;;;;2.53;0.50;;;11.50;99.90;;;;;;6251838;22;20094;-84
2022/11/04 04:02:24;;;;;;;2.47;0.40;;;11.50;99.90;;;;;;6251945;22;20012;-85
2022/11/04 04:05:05;;;;;;;2.25;0.50;;;11.40;99.90;;;;;;6251738;22;20316;-84
2022/11/04 04:07:37;;;;;;;1.85;0.50;;;11.40;99.90;;;;;;6278761;22;20085;-84
2022/11/04 04:10:40;;;;;;;1.35;0.30;;;11.40;99.90;;;;;;6251492;22;20069;-85
2022/11/04 04:13:21;;;;;;;2.10;0.40;;;11.40;99.90;;;;;;6277300;22;20020;-86
2022/11/04 04:15:53;;;;;;;3.45;0.57;;;11.40;99.90;;;;;;6278532;22;20464;-86
2022/11/04 04:18:26;;;;;;;2.17;0.40;;;11.40;99.90;;;;;;6252306;22;20023;-85
2022/11/04 04:20:55;;;;;;;3.30;0.40;;;11.40;99.90;;;;;;6251107;22;20019;-84
2022/11/04 04:29:00;;;;;;;3.42;0.57;;;11.40;99.90;;;;;;6278424;22;20462;-85
2022/11/04 04:34:13;;;;;;;3.72;0.85;;;11.30;99.90;;;;;;6250319;22;20020;-85
2022/11/04 04:36:49;;;;;;;2.88;0.50;;;11.30;99.90;;;;;;6249679;22;20456;-85
2022/11/04 04:45:03;;;;;;;2.25;0.30;;;11.30;99.90;;;;;;6250929;22;20110;-85
2022/11/04 04:47:45;;;;;;;2.60;0.35;;;11.30;99.90;;;;;;6252094;22;20350;-85
2022/11/04 04:50:14;;;;;;;2.15;0.52;;;11.30;99.90;;;;;;6251429;22;20058;-82
2022/11/04 04:52:43;;;;;;;2.65;0.40;;;11.20;99.90;;;;;;6279371;22;20448;-84
2022/11/04 04:55:36;;;;;;;2.15;0.32;;;11.20;99.90;;;;;;6277308;22;20551;-89
2022/11/04 04:58:14;;;;;;;1.45;0.38;;;11.20;99.90;;;;;;6250755;22;20020;-91
2022/11/04 05:07:16;;;;;;;2.38;0.52;;;11.20;99.90;;;;;;6245076;22;20472;-86
2022/11/04 05:09:42;;;;;;;6.50;0.65;;;11.10;99.90;;;;;;6215833;23;20028;-83
2022/11/04 05:12:08;;;;;;;4.00;0.57;;;11.20;99.90;;;;;;6189302;23;20025;-82
2022/11/04 05:14:34;;;;;;;3.30;0.50;;;11.20;99.90;;;;;;6187945;23;20025;-82
2022/11/04 05:17:00;;;;;;;2.47;0.32;;;11.10;99.90;;;;;;6187195;23;20096;-82
2022/11/04 05:19:26;;;;;;;3.33;0.60;;;11.20;99.90;;;;;;6188041;23;20047;-82
2022/11/04 05:22:01;;;;;;;3.70;0.45;;;11.10;99.90;;;;;;6188387;23;20028;-82
2022/11/04 05:24:29;;;;;;;1.83;0.40;;;11.10;99.90;;;;;;6214569;23;20056;-82
2022/11/04 05:27:01;;;;;;;3.00;0.60;;;11.10;99.90;;;;;;6188076;23;20028;-82
2022/11/04 05:29:30;;;;;;;2.47;0.43;;;11.10;99.90;;;;;;6215014;23;20468;-82
2022/11/04 05:32:14;;;;;;;1.95;0.47;;;11.10;99.90;;;;;;6213867;23;20102;-82
2022/11/04 05:34:42;;;;;;;3.15;0.50;;;11.10;99.90;;;;;;6187495;23;20020;-82
2022/11/04 05:37:20;;;;;;;1.50;0.40;;;11.10;99.90;;;;;;6187827;23;20024;-82
2022/11/04 05:39:49;;;;;;;1.25;0.40;;;11.10;99.90;;;;;;6215141;23;20083;-82
2022/11/04 05:42:15;;;;;;;2.58;0.43;;;11.00;99.90;;;;;;6188571;23;20028;-82
2022/11/04 05:44:45;;;;;;;3.35;0.60;;;11.10;99.90;;;;;;6187604;23;20016;-82
2022/11/04 05:47:14;;;;;;;3.50;0.50;;;11.00;99.90;;;;;;6187687;23;20467;-82
2022/11/04 05:49:40;;;;;;;2.72;0.50;;;11.10;99.90;;;;;;6215166;23;20028;-82
2022/11/04 05:52:11;;;;;;;3.97;0.45;;;11.00;99.90;;;;;;6213629;23;20016;-82
2022/11/04 05:54:38;;;;;;;2.10;0.50;;;11.00;99.90;;;;;;6187718;23;20066;-83
2022/11/04 05:57:03;;;;;;;1.58;0.40;;;11.00;99.90;;;;;;6187367;23;20024;-81
2022/11/04 05:59:29;;;;;;;2.75;0.50;;;11.00;99.90;;;;;;6187277;23;20036;-81
2022/11/04 06:01:54;;;;;;;1.52;0.30;;;11.00;99.90;;;;;;6187633;23;20356;-83
2022/11/04 06:04:20;;;;;;;0.98;0.38;;;10.90;99.90;;;;;;6188633;23;20016;-84
2022/11/04 06:06:46;;;;;;;1.20;0.35;;;11.00;99.90;;;;;;6186709;23;20020;-84
2022/11/04 06:09:11;;;;;;;1.95;0.40;;;10.90;99.90;;;;;;6214396;23;20009;-83
2022/11/04 06:11:37;;;;;;;0.90;0.40;;;10.90;99.90;;;;;;6187847;23;20019;-84
2022/11/04 06:14:03;;;;;;;2.53;0.50;;;10.90;99.90;;;;;;6186768;23;20021;-84
2022/11/04 06:16:29;;;;;;;2.83;0.60;;;10.90;99.90;;;;;;6187456;23;20024;-84
2022/11/04 06:18:55;;;;;;;1.85;0.25;;;10.90;99.90;;;;;;6187297;23;20016;-83
2022/11/04 06:21:29;;;;;;;2.45;0.43;;;10.80;99.90;;;;;;6186910;23;20348;-84
2022/11/04 06:23:56;;;;;;;2.35;0.40;;;10.80;99.90;;;;;;6187619;23;20017;-83
2022/11/04 06:26:26;;;;;;;2.60;0.50;;;10.80;99.90;;;;;;6213848;23;20060;-84
2022/11/04 06:28:52;;;;;;;2.22;0.40;;;10.70;99.90;;;;;;6187093;23;20027;-84
2022/11/04 06:31:19;;;;;;;1.50;0.40;;;10.70;99.90;;;;;;6214697;23;20013;-83
2022/11/04 06:33:45;;;;;;;3.10;0.43;;;10.70;99.90;;;;;;6187581;23;20017;-84
2022/11/04 06:36:13;;;;;;;5.50;0.47;;;10.70;99.90;;;;;;6214757;23;20155;-84
2022/11/04 06:38:40;;;;;;;2.58;0.40;;;10.70;99.90;;;;;;6189678;23;20067;-84
2022/11/04 06:41:09;;;;;;;2.17;0.43;;;10.70;99.90;;;;;;6215137;23;20124;-85
2022/11/04 06:43:34;;;;;;;1.80;0.43;;;10.60;99.90;;;;;;6215852;23;20017;-84
2022/11/04 06:46:01;;;;;;;3.83;0.60;;;10.60;99.90;;;;;;6215261;23;20071;-84
2022/11/04 06:48:29;;;;;;;4.13;0.50;;;10.60;99.90;;;;;;6215360;23;20087;-84
2022/11/04 06:50:57;;;;;;;2.60;0.57;;;10.60;99.90;;;;;;6215905;23;20058;-84
2022/11/04 06:53:22;;;;;;;3.92;0.50;;;10.60;99.90;;;;;;6215995;23;20082;-81
2022/11/04 06:55:48;;;;;;;2.20;0.35;;;10.60;99.90;;;;;;6187786;23;20342;-83
2022/11/04 06:58:13;;;;;;;3.28;0.40;;;10.60;99.90;;;;;;6215111;23;20048;-84
2022/11/04 07:00:39;;;;;;;2.63;0.40;;;10.60;99.90;;;;;;6215118;23;20027;-84
2022/11/04 07:03:05;;;;;;;3.40;0.50;;;10.60;99.90;;;;;;6187532;23;20132;-85
2022/11/04 07:05:34;;;;;;;3.58;0.50;;;10.50;99.90;;;;;;6216214;23;20023;-84
2022/11/04 07:07:59;;;;;;;2.92;0.40;;;10.50;99.90;;;;;;6215419;23;20012;-83
2022/11/04 07:10:25;;;;;;;1.67;0.50;;;10.50;99.90;;;;;;6188036;23;20066;-83
2022/11/04 07:12:51;;;;;;;2.00;0.70;;;10.50;99.90;;;;;;6215528;23;20005;-85
2022/11/04 07:15:17;;;;;;;3.00;0.60;;;10.50;99.90;;;;;;6215184;23;20381;-86
2022/11/04 07:17:43;;;;;;;3.05;0.57;;;10.50;99.90;;;;;;6214657;23;20051;-84
2022/11/04 07:20:12;;;;;;;4.20;0.60;;;10.50;99.90;;;;;;6188268;23;20067;-84
2022/11/04 07:22:37;;;;;;;2.28;0.40;;;10.40;99.90;;;;;;6215220;23;20012;-84
2022/11/04 07:25:04;;;;;;;3.47;0.60;;;10.40;99.90;;;;;;6215214;23;20017;-84
2022/11/04 07:27:29;;;;;;;2.63;0.73;;;10.40;99.90;;;;;;6189322;23;20020;-85
2022/11/04 07:29:55;;;;;;;3.10;0.60;;;10.40;99.90;;;;;;6187072;23;20017;-83
2022/11/04 07:32:20;;;;;;;2.65;0.50;;;10.40;99.90;;;;;;6188324;23;20016;-82
2022/11/04 07:34:46;;;;;;;1.50;0.60;;;10.40;99.90;;;;;;6214882;23;20012;-81
2022/11/04 07:37:12;;;;;;;3.58;0.80;;;10.30;99.90;;;;;;6188093;23;20353;-83
2022/11/04 07:39:37;;;;;;;4.05;0.60;;;10.30;99.90;;;;;;6188721;23;20345;-83
2022/11/04 07:42:06;;;;;;;2.53;0.70;;;10.30;99.90;;;;;;6188773;23;20062;-81
2022/11/04 07:44:32;;;;;;;3.22;0.60;;;10.30;99.90;;;;;;6215461;23;20013;-83
2022/11/04 07:46:58;;;;;;;2.65;0.68;;;10.30;99.90;;;;;;6188059;23;20052;-83
2022/11/04 07:49:24;;;;;;;2.67;0.90;;;10.30;99.90;;;;;;6188568;23;20018;-84
2022/11/04 07:51:50;;;;;;;5.35;1.02;;;10.30;99.90;;;;;;6187338;23;20012;-83
2022/11/04 07:54:16;;;;;;;1.40;0.60;;;10.30;99.90;;;;;;6214820;23;20314;-83
2022/11/04 07:56:41;;;;;;;3.60;0.85;;;10.30;99.90;;;;;;6214934;23;20017;-83
2022/11/04 07:59:07;;;;;;;3.72;0.70;;;10.30;99.90;;;;;;6213917;23;20044;-81
2022/11/04 08:01:33;;;;;;;3.05;0.90;;;10.20;99.90;;;;;;6215134;23;20021;-83
2022/11/04 08:03:59;;;;;;;2.78;0.90;;;10.30;99.90;;;;;;6190252;23;20023;-83
2022/11/04 08:06:24;;;;;;;2.90;0.77;;;10.30;99.90;;;;;;6187874;23;20046;-82
2022/11/04 08:08:52;;;;;;;2.33;0.65;;;10.30;99.90;;;;;;6214693;23;20087;-82
2022/11/04 08:11:22;;;;;;;4.13;0.85;;;10.30;99.90;;;;;;6188171;23;20016;-82
2022/11/04 08:13:47;;;;;;;3.78;0.70;;;10.30;99.90;;;;;;6214113;23;20012;-82
2022/11/04 08:16:19;;;;;;;4.00;0.88;;;10.30;99.90;;;;;;6188482;23;20503;-82
2022/11/04 08:18:46;;;;;;;4.60;0.80;;;10.30;99.90;;;;;;6187680;23;20016;-83
2022/11/04 08:21:12;;;;;;;3.35;0.55;;;10.30;99.90;;;;;;6188106;23;20017;-84
2022/11/04 08:23:38;;;;;;;4.05;0.88;;;10.30;99.90;;;;;;6215755;23;20009;-83
2022/11/04 08:26:13;;;;;;;3.17;0.80;;;10.40;99.90;;;;;;6214208;23;20094;-83
2022/11/04 08:28:39;;;;;;;4.40;0.80;;;10.40;99.90;;;;;;6214727;23;20009;-82
2022/11/04 08:31:12;;;;;;;2.53;0.90;;;10.40;99.90;;;;;;6216516;23;20066;-82
2022/11/04 08:33:39;;;;;;;4.50;0.90;;;10.50;99.90;;;;;;6216258;23;20131;-82
2022/11/04 08:36:13;;;;;;;3.67;1.10;;;10.50;99.90;;;;;;6216323;23;20052;-82
2022/11/04 08:38:39;;;;;;;1.65;0.75;;;10.60;99.90;;;;;;6216914;23;20013;-82
2022/11/04 08:41:06;;;;;;;4.03;0.90;;;10.60;99.90;;;;;;6188330;23;20342;-82
2022/11/04 08:43:33;;;;;;;3.85;0.88;;;10.60;99.90;;;;;;6217153;23;20437;-84
2022/11/04 08:46:00;;;;;;;2.78;0.70;;;10.70;99.90;;;;;;6216947;23;20016;-84
2022/11/04 08:48:25;;;;;;;3.55;0.90;;;10.70;99.90;;;;;;6189539;23;20016;-84
2022/11/04 08:50:53;;;;;;;2.65;0.80;;;10.70;99.90;;;;;;6189622;23;20104;-83
2022/11/04 08:53:19;;;;;;;3.22;0.70;;;10.80;99.90;;;;;;6216223;23;20337;-83
2022/11/04 08:55:45;;;;;;;4.18;1.00;;;10.80;99.90;;;;;;6188676;23;20043;-83
2022/11/04 08:58:14;;;;;;;3.25;0.63;;;10.80;99.90;;;;;;6189831;23;20032;-83
2022/11/04 09:00:39;;;;;;;3.28;0.60;;;10.90;99.90;;;;;;6216734;23;20016;-84
2022/11/04 09:03:05;;;;;;;3.85;0.90;;;11.00;99.90;;;;;;6188222;23;20013;-84
2022/11/04 09:05:31;;;;;;;4.68;0.90;;;11.00;99.90;;;;;;6190620;23;20381;-84
2022/11/04 09:07:57;;;;;;;3.28;0.80;;;11.00;99.90;;;;;;6188886;23;20016;-84
2022/11/04 09:10:22;;;;;;;3.25;0.70;;;11.10;99.90;;;;;;6216299;23;20028;-86
2022/11/04 09:12:58;;;;;;;3.55;0.90;;;11.10;99.90;;;;;;6190206;23;20013;-87
2022/11/04 09:15:24;;;;;;;;;;;11.10;99.90;;;;;;6190742;23;20016;-89
2022/11/04 09:17:53;;;;;;;4.25;0.80;;;11.10;99.90;;;;;;6190141;23;20347;-86
2022/11/04 09:20:18;;;;;;;3.85;0.80;;;11.20;99.90;;;;;;6190026;23;20019;-84
2022/11/04 09:22:51;;;;;;;5.93;0.90;;;11.30;99.90;;;;;;6216559;23;20087;-84
2022/11/04 09:25:20;;;;;;;6.03;0.93;;;11.30;99.90;;;;;;6190299;23;20027;-85
2022/11/04 09:27:55;;;;;;;6.05;1.15;;;11.30;99.90;;;;;;6189966;23;20051;-85
2022/11/04 09:30:32;;;;;;;6.18;1.13;;;11.40;99.90;;;;;;6215876;23;20457;-85
2022/11/04 09:33:01;;;;;;;3.60;1.00;;;11.40;99.90;;;;;;6189965;23;20019;-84
2022/11/04 09:35:30;;;;;;;2.90;0.90;;;11.40;99.90;;;;;;6189731;23;20017;-84
2022/11/04 09:38:02;;;;;;;4.13;1.10;;;11.50;99.90;;;;;;6188669;23;20017;-84
2022/11/04 09:40:36;;;;;;;4.10;0.80;;;11.50;99.90;;;;;;6189668;23;20024;-85
2022/11/04 09:43:39;;;;;;;3.42;0.73;;;11.60;99.90;;;;;;6188921;23;20143;-84
2022/11/04 09:46:07;;;;;;;4.63;0.98;;;11.60;99.90;;;;;;6189268;23;20100;-84
2022/11/04 09:48:49;;;;;;;5.07;0.80;;;11.70;99.90;;;;;;6189834;23;20398;-84
2022/11/04 09:51:17;;;;;;;4.25;0.90;;;11.70;99.90;;;;;;6216102;23;20568;-85
2022/11/04 09:53:50;;;;;;;4.55;1.15;;;11.70;99.90;;;;;;6216259;23;20016;-85
2022/11/04 09:56:20;;;;;;;3.75;1.65;;;11.80;99.90;;;;;;6189300;23;20352;-86
2022/11/04 09:58:47;;;;;;;6.25;1.58;;;11.80;99.90;;;;;;6214859;23;20075;-85
2022/11/04 10:01:32;;;;;;;8.18;2.22;;;11.80;99.90;;;;;;6216342;23;20334;-86
2022/11/04 10:04:10;;;;;;;8.50;4.45;;;11.90;99.90;;;;;;6216516;23;20097;-86
2022/11/04 10:07:17;;;;;;;6.43;1.88;;;11.90;99.90;;;;;;6216470;23;20008;-86
2022/11/04 10:09:56;;;;;;;5.75;1.52;;;12.00;99.90;;;;;;6213564;23;20330;-86
2022/11/04 10:12:44;;;;;;;6.78;2.03;;;12.00;99.90;;;;;;6188508;23;20092;-86
2022/11/04 10:15:23;;;;;;;6.90;2.53;;;12.10;99.90;;;;;;6189312;23;20017;-86
2022/11/04 10:18:12;;;;;;;5.40;1.70;;;12.10;99.90;;;;;;6215915;23;20011;-87
2022/11/04 10:20:48;;;;;;;5.85;1.80;;;12.20;99.90;;;;;;6148123;23;20028;-86
2022/11/04 10:23:28;;;;;;;7.63;2.67;;;12.20;99.90;;;;;;6189608;23;20457;-86
2022/11/04 10:26:12;;;;;;;5.38;2.10;;;12.30;99.90;;;;;;6188710;23;20338;-86
2022/11/04 10:29:02;;;;;;;6.90;1.80;;;12.40;99.90;;;;;;6216519;23;20020;-86
2022/11/04 10:31:27;;;;;;;8.18;2.22;;;12.40;99.90;;;;;;6188749;23;20016;-87
2022/11/04 10:34:23;;;;;;;5.10;1.25;;;12.50;99.90;;;;;;6215409;23;20021;-85
2022/11/04 10:36:49;;;;;;;6.20;1.50;;;12.50;99.90;;;;;;6143677;23;20013;-86
2022/11/04 10:39:24;;;;;;;7.25;2.50;;;12.60;99.90;;;;;;6188975;23;20095;-85
2022/11/04 10:41:50;;;;;;;6.40;2.15;;;12.60;99.90;;;;;;6216087;23;20084;-86
2022/11/04 10:44:22;;;;;;;6.40;2.10;;;12.70;99.90;;;;;;6189299;23;20457;-86
2022/11/04 10:47:10;;;;;;;7.22;2.63;;;12.80;99.90;;;;;;6188563;23;20017;-85
2022/11/04 10:49:55;;;;;;;6.78;1.77;;;12.80;99.90;;;;;;6188768;23;20016;-85
2022/11/04 10:52:21;;;;;;;6.18;1.60;;;12.90;99.90;;;;;;6188342;23;20119;-86
2022/11/04 10:54:48;;;;;;;5.63;1.45;;;12.90;99.90;;;;;;6188417;23;20457;-84
2022/11/04 10:57:20;;;;;;;5.03;1.40;;;13.00;99.90;;;;;;6214442;23;20017;-85
2022/11/04 10:59:51;;;;;;;5.03;1.40;;;13.00;99.90;;;;;;6180426;23;20036;-86
2022/11/04 11:02:17;;;;;;;4.63;1.30;;;13.00;99.90;;;;;;6188017;23;20021;-86
2022/11/04 11:04:45;;;;;;;7.75;1.73;;;13.10;99.90;;;;;;6189128;23;20374;-87
2022/11/04 11:07:17;;;;;;;7.97;1.73;;;13.10;99.90;;;;;;6188769;23;20076;-86
2022/11/04 11:09:52;;;;;;;7.03;1.30;;;13.20;99.90;;;;;;6187008;23;20059;-85
2022/11/04 11:12:35;;;;;;;8.00;1.80;;;13.20;99.90;;;;;;6223029;23;20012;-86
2022/11/04 11:15:18;;;;;;;6.97;1.60;;;13.20;99.90;;;;;;6251251;22;20023;-87
2022/11/04 11:17:45;;;;;;;5.27;1.77;;;13.20;99.80;;;;;;6249027;22;20020;-87
2022/11/04 11:20:21;;;;;;;7.60;1.50;;;13.30;99.90;;;;;;6276977;22;20015;-89
2022/11/04 11:22:50;;;;;;;5.93;1.38;;;13.30;99.90;;;;;;6248309;22;20332;-88
2022/11/04 11:25:29;;;;;;;6.43;1.40;;;13.30;99.80;;;;;;6249592;22;20016;-89
2022/11/04 11:28:01;;;;;;;6.85;1.55;;;13.30;99.70;;;;;;6248787;22;20015;-88
2022/11/04 11:30:47;;;;;;;7.68;1.65;;;13.30;99.60;;;;;;6249124;22;20020;-90
2022/11/04 11:33:30;;;;;;;6.00;1.60;;;13.30;99.30;;;;;;6274677;22;20020;-88
2022/11/04 11:36:19;;;;;;;5.45;1.48;;;13.30;99.40;;;;;;6244574;22;20384;-88
2022/11/04 11:39:15;;;;;;;6.35;1.65;;;13.30;99.50;;;;;;6248801;22;20011;-88
2022/11/04 11:42:03;;;;;;;5.70;1.45;;;13.30;99.20;;;;;;6249193;22;20018;-88
2022/11/04 11:44:50;;;;;;;6.35;1.23;;;13.30;99.40;;;;;;6277405;22;20479;-85
2022/11/04 11:47:35;;;;;;;7.93;1.20;;;13.30;99.30;;;;;;6252772;22;20027;-86
2022/11/04 11:50:19;;;;;;;3.70;1.05;;;13.30;99.30;;;;;;6248564;22;20314;-87
2022/11/04 11:52:47;;;;;;;3.00;0.82;;;13.20;99.40;;;;;;6275597;22;20444;-88
2022/11/04 11:55:35;;;;;;;2.90;0.90;;;13.20;99.60;;;;;;6253352;22;20020;-86
2022/11/04 12:03:52;;;;;;;5.32;1.10;;;13.30;99.90;;;;;;6219097;23;20016;-93
2022/11/04 12:06:18;;;;;;;5.10;1.23;;;13.30;99.90;;;;;;6220782;23;20029;-86
2022/11/04 12:09:44;;;;;;;3.25;0.93;;;13.40;99.90;;;;;;6277814;22;20016;-87
2022/11/04 12:13:08;;;;;;;4.38;1.33;;;13.40;99.90;;;;;;6250157;22;20019;-86
2022/11/04 12:16:10;;;;;;;3.40;0.93;;;13.40;99.90;;;;;;6249830;22;20061;-86
2022/11/04 12:19:30;;;;;;;4.50;0.82;;;13.40;99.90;;;;;;6277129;22;20440;-86
2022/11/04 12:22:34;;;;;;;4.63;0.88;;;13.40;99.90;;;;;;6278198;22;20016;-86
2022/11/04 12:25:33;;;;;;;4.85;0.98;;;13.40;99.90;;;;;;6209518;22;20073;-86
2022/11/04 12:28:24;;;;;;;3.75;1.08;;;13.40;99.90;;;;;;6278073;22;20100;-86
2022/11/04 12:31:19;;;;;;;6.72;1.50;;;13.40;99.90;;;;;;6251007;22;20109;-86
2022/11/04 12:33:58;;;;;;;4.20;1.10;;;13.40;99.90;;;;;;6249595;22;20027;-87
2022/11/04 12:36:50;;;;;;;3.88;1.40;;;13.40;99.90;;;;;;6250822;22;20440;-87
2022/11/04 12:39:42;;;;;;;7.13;1.90;;;13.40;99.90;;;;;;6250299;22;20016;-86
2022/11/04 12:42:17;;;;;;;4.32;1.23;;;13.40;99.90;;;;;;6225866;22;20015;-87
2022/11/04 12:44:50;;;;;;;7.47;1.80;;;13.50;99.90;;;;;;6250584;22;20016;-87
2022/11/04 12:47:22;;;;;;;6.22;1.40;;;13.50;99.90;;;;;;6249328;22;20019;-87
2022/11/04 12:50:12;;;;;;;6.13;1.47;;;13.50;99.90;;;;;;6250279;22;20015;-87
2022/11/04 12:53:08;;;;;;;7.25;1.58;;;13.50;99.90;;;;;;6250674;22;20337;-87
2022/11/04 12:55:42;;;;;;;6.30;1.42;;;13.50;99.90;;;;;;6276676;22;20024;-87
2022/11/04 12:58:19;;;;;;;5.18;1.20;;;13.50;99.90;;;;;;6277313;22;20436;-85
2022/11/04 13:00:50;;;;;;;7.00;1.33;;;13.50;99.90;;;;;;6249039;22;20022;-85
2022/11/04 13:03:28;;;;;;;4.22;1.08;;;13.50;99.90;;;;;;6250449;22;20022;-86
2022/11/04 13:06:08;;;;;;;8.38;1.33;;;13.50;99.80;;;;;;6277354;22;20011;-86
2022/11/04 13:08:51;;;;;;;6.80;1.30;;;13.40;99.60;;;;;;6250162;22;20455;-86
2022/11/04 13:11:24;;;;;;;;;;;13.40;99.70;;;;;;6278692;22;20011;-86
2022/11/04 13:14:05;;;;;;;4.60;1.15;;;13.30;99.40;;;;;;6277214;22;19981;-86
2022/11/04 13:16:35;;;;;;;6.28;1.20;;;13.40;99.90;;;;;;6276929;22;20393;-86
2022/11/04 13:19:02;;;;;;;6.15;1.52;;;13.40;99.90;;;;;;6249980;22;20008;-86
2022/11/04 13:21:33;;;;;;;3.08;0.95;;;13.40;99.80;;;;;;6249556;22;20015;-86
2022/11/04 13:24:15;;;;;;;8.10;1.13;;;13.40;99.60;;;;;;6250266;22;20012;-86
2022/11/04 13:26:41;;;;;;;4.70;1.10;;;13.40;99.40;;;;;;6250891;22;20094;-86
2022/11/04 13:29:13;;;;;;;7.03;1.20;;;13.30;99.30;;;;;;6276055;22;20047;-86
2022/11/04 13:31:49;;;;;;;7.40;1.40;;;13.40;99.30;;;;;;6250155;22;20452;-87
2022/11/04 13:34:44;;;;;;;6.38;1.73;;;13.30;99.10;;;;;;6277830;22;20054;-87
2022/11/04 13:37:20;;;;;;;6.28;1.40;;;13.30;98.80;;;;;;6248993;22;20016;-87
2022/11/04 13:39:53;;;;;;;5.78;1.15;;;13.30;99.20;;;;;;6277135;22;20016;-87
2022/11/04 13:42:31;;;;;;;3.95;1.10;;;13.30;99.40;;;;;;6248787;22;20074;-87
2022/11/04 13:45:10;;;;;;;5.75;1.30;;;13.30;99.50;;;;;;6249992;22;20050;-89
2022/11/04 13:47:56;;;;;;;8.57;1.27;;;13.40;99.30;;;;;;6250554;22;20089;-88
2022/11/04 13:50:40;;;;;;;4.43;1.00;;;13.40;99.10;;;;;;6249237;22;20016;-89
2022/11/04 13:53:09;;;;;;;4.05;1.00;;;13.40;99.20;;;;;;6249361;22;20011;-89
2022/11/04 13:55:50;;;;;;;5.43;1.10;;;13.40;99.40;;;;;;6277272;22;20061;-86
2022/11/04 13:58:26;;;;;;;5.75;0.98;;;13.40;99.20;;;;;;6248946;22;20070;-88
2022/11/04 14:04:24;;;;;;;7.40;1.25;;;13.40;99.30;;;;;;6245005;22;20104;-88
2022/11/04 14:07:04;;;;;;;4.38;1.10;;;13.40;99.10;;;;;;6249972;22;20094;-89
2022/11/04 14:09:51;;;;;;;6.10;1.10;;;13.40;99.30;;;;;;6250719;22;20023;-91